Time;durP1;ratioP1;P1;durP2;ratioP2;P2;SDS_P1;SDS_P2;PMS_P1;PMS_P2;Temp;Humidity;BMP_temperature;BMP_pressure;BME280_temperature;BME280_humidity;BME280_pressure;Samples;Min_cycle;Max_cycle;Signal;HPM_P1;HPM_P2
2022/10/19 00:01:04;;;;;;;7.97;1.90;;;9.10;99.90;;;7.60;100.00;101938.25;4931856;29;20098;-78
2022/10/19 00:03:31;;;;;;;6.35;1.55;;;9.00;99.90;;;7.60;100.00;101949.09;4921360;29;20474;-79
2022/10/19 00:05:58;;;;;;;5.13;1.80;;;9.00;99.90;;;7.56;100.00;101951.28;4938789;28;20047;-77
2022/10/19 00:08:23;;;;;;;11.35;2.35;;;8.90;99.90;;;7.48;100.00;101949.38;4944668;28;20027;-77
2022/10/19 00:10:49;;;;;;;7.95;1.80;;;8.90;99.90;;;7.33;100.00;101932.03;4939311;28;20371;-77
2022/10/19 00:13:15;;;;;;;10.95;2.38;;;8.80;99.90;;;7.41;100.00;101942.06;4936376;28;20121;-77
2022/10/19 00:15:41;;;;;;;5.10;1.67;;;8.80;99.90;;;7.44;100.00;101939.88;4939536;28;20039;-77
2022/10/19 00:18:08;;;;;;;11.00;2.15;;;8.80;99.90;;;7.41;100.00;101929.34;4928793;29;20035;-77
2022/10/19 00:20:35;;;;;;;7.85;1.73;;;8.90;99.90;;;7.36;100.00;101930.84;4944391;28;20027;-77
2022/10/19 00:23:02;;;;;;;11.63;2.03;;;8.80;99.90;;;7.58;100.00;101957.41;4939488;28;20039;-77
2022/10/19 00:25:28;;;;;;;7.10;2.17;;;8.90;99.90;;;7.91;100.00;101962.06;4936463;28;20027;-77
2022/10/19 00:27:53;;;;;;;9.10;2.05;;;9.10;99.90;;;8.03;100.00;101943.59;4936730;28;20542;-77
2022/10/19 00:30:19;;;;;;;7.25;1.67;;;9.30;99.90;;;8.22;100.00;101950.56;4937819;28;20035;-77
2022/10/19 00:32:45;;;;;;;10.10;2.45;;;9.50;99.90;;;8.37;100.00;101966.22;4939610;29;20035;-78
2022/10/19 00:35:11;;;;;;;7.80;1.90;;;9.70;99.90;;;8.34;100.00;101951.06;4941575;28;20031;-78
2022/10/19 00:37:37;;;;;;;8.13;1.80;;;9.80;99.90;;;8.54;100.00;101975.25;4941526;28;20430;-78
2022/10/19 00:40:04;;;;;;;7.55;2.10;;;9.90;99.90;;;8.49;100.00;101967.56;4939784;28;20038;-79
2022/10/19 00:42:29;;;;;;;6.20;1.80;;;9.90;99.90;;;8.48;100.00;101969.41;4939365;28;20027;-79
2022/10/19 00:45:10;;;;;;;7.47;1.92;;;9.90;99.90;;;8.43;100.00;101958.19;4938546;28;20099;-77
2022/10/19 00:47:35;;;;;;;7.35;1.83;;;9.90;99.90;;;8.47;100.00;101970.44;4943994;28;20105;-77
2022/10/19 00:50:02;;;;;;;7.78;1.70;;;9.90;99.90;;;8.47;100.00;101965.00;4942882;28;20024;-77
2022/10/19 00:52:28;;;;;;;5.75;1.45;;;9.90;99.90;;;8.43;100.00;101955.47;4941544;28;20109;-78
2022/10/19 00:54:56;;;;;;;8.00;1.80;;;9.90;99.90;;;8.44;100.00;101956.34;4940206;28;21920;-78
2022/10/19 00:57:27;;;;;;;4.47;1.65;;;9.80;99.90;;;8.35;100.00;101936.44;4925489;29;20035;-78
2022/10/19 00:59:54;;;;;;;6.38;1.92;;;9.90;99.90;;;8.37;100.00;101945.28;4941407;28;20038;-78
2022/10/19 01:02:20;;;;;;;9.57;2.13;;;9.80;99.90;;;8.38;100.00;101944.25;4929457;28;20119;-79
2022/10/19 01:04:50;;;;;;;8.82;2.35;;;9.80;99.90;;;8.41;100.00;101946.63;4919679;29;20024;-78
2022/10/19 01:07:18;;;;;;;8.90;1.85;;;9.80;99.90;;;8.49;100.00;101952.13;4915884;29;20511;-78
2022/10/19 01:09:44;;;;;;;14.13;2.20;;;9.90;99.90;;;8.48;100.00;101947.66;4921685;29;20047;-78
2022/10/19 01:12:51;;;;;;;7.25;1.80;;;10.00;99.90;;;8.59;100.00;101953.81;4920942;29;20164;-77
2022/10/19 01:15:40;;;;;;;7.88;2.28;;;10.00;99.90;;;8.56;100.00;101940.56;4922626;29;20028;-78
2022/10/19 01:18:34;;;;;;;6.05;2.17;;;10.00;99.90;;;8.63;100.00;101956.03;4922663;28;20027;-78
2022/10/19 01:21:32;;;;;;;8.23;2.75;;;10.10;99.90;;;8.63;100.00;101956.03;4918003;29;20076;-77
2022/10/19 01:24:57;;;;;;;7.72;2.10;;;10.10;99.90;;;8.63;100.00;101949.72;4919885;29;20150;-78
2022/10/19 01:27:39;;;;;;;7.65;2.22;;;10.00;99.90;;;8.65;100.00;101947.69;4887426;29;20033;-77
2022/10/19 01:30:15;;;;;;;8.25;2.00;;;10.00;99.90;;;8.60;100.00;101931.03;4924753;29;20135;-77
2022/10/19 01:33:02;;;;;;;7.68;2.22;;;10.10;99.90;;;8.70;100.00;101939.00;4926323;29;20104;-78
2022/10/19 01:35:45;;;;;;;8.77;2.35;;;10.10;99.90;;;8.68;100.00;101941.88;4924508;29;20035;-77
2022/10/19 01:38:51;;;;;;;6.68;1.80;;;10.10;99.90;;;8.70;100.00;101944.44;4923953;29;20438;-78
2022/10/19 01:41:30;;;;;;;7.10;2.25;;;10.10;99.90;;;8.70;100.00;101956.16;4928009;29;20123;-77
2022/10/19 01:44:09;;;;;;;6.32;1.63;;;10.10;99.90;;;8.70;100.00;101952.59;4921646;29;20046;-78
2022/10/19 01:46:40;;;;;;;5.13;1.70;;;10.10;99.90;;;8.69;100.00;101950.91;4928124;29;20064;-78
2022/10/19 01:49:26;;;;;;;6.50;1.60;;;10.10;99.90;;;8.68;100.00;101950.03;4919099;29;20024;-78
2022/10/19 01:51:58;;;;;;;7.57;1.83;;;10.10;99.90;;;8.62;100.00;101939.84;4922852;29;20039;-78
2022/10/19 01:54:29;;;;;;;6.32;1.90;;;10.00;99.90;;;8.63;100.00;101955.16;4923932;28;20043;-78
2022/10/19 01:57:00;;;;;;;7.85;1.80;;;10.10;99.90;;;8.54;100.00;101939.88;4926877;28;20098;-78
2022/10/19 01:59:26;;;;;;;7.47;2.35;;;10.00;99.90;;;8.30;100.00;101901.59;4929147;29;20051;-78
2022/10/19 02:01:54;;;;;;;6.78;1.60;;;10.00;99.90;;;8.54;100.00;101940.72;4924195;29;20476;-78
2022/10/19 02:04:23;;;;;;;6.50;2.03;;;10.00;99.90;;;8.62;100.00;101953.47;4923428;29;20123;-78
2022/10/19 02:06:52;;;;;;;6.80;1.88;;;10.00;99.90;;;8.63;100.00;101949.72;4923151;29;20032;-78
2022/10/19 02:09:19;;;;;;;6.43;1.65;;;10.10;99.90;;;8.54;100.00;101927.13;4936127;29;20028;-78
2022/10/19 02:12:00;;;;;;;7.38;1.90;;;10.10;99.90;;;8.69;100.00;101950.91;4924471;28;20032;-78
2022/10/19 02:14:33;;;;;;;7.40;1.67;;;10.10;99.90;;;8.49;100.00;101919.50;4925004;29;20376;-78
2022/10/19 02:17:12;;;;;;;9.52;1.90;;;10.20;99.90;;;8.75;100.00;101953.81;4925302;28;20048;-78
2022/10/19 02:19:38;;;;;;;5.45;1.65;;;10.20;99.90;;;8.71;100.00;101946.16;4927479;28;20027;-78
2022/10/19 02:22:05;;;;;;;6.25;1.48;;;10.20;99.90;;;8.77;100.00;101957.19;4923424;28;20387;-78
2022/10/19 02:24:31;;;;;;;4.03;1.30;;;10.20;99.90;;;8.70;100.00;101939.84;4923042;28;20035;-78
2022/10/19 02:26:59;;;;;;;6.60;1.92;;;10.30;99.90;;;8.83;100.00;101952.06;4924572;29;20023;-78
2022/10/19 02:29:26;;;;;;;;;;;10.30;99.90;;;8.84;100.00;101948.34;4923137;29;20118;-78
2022/10/19 02:31:52;;;;;;;6.50;1.60;;;10.30;99.90;;;8.84;100.00;101946.44;4921728;29;19918;-78
2022/10/19 02:34:18;;;;;;;5.22;1.65;;;10.20;99.90;;;8.74;100.00;101934.91;4928722;29;20046;-78
2022/10/19 02:36:44;;;;;;;7.93;1.83;;;10.30;99.90;;;8.86;100.00;101951.72;4928667;29;20045;-79
2022/10/19 02:39:10;;;;;;;7.43;2.30;;;10.30;99.90;;;8.88;100.00;101952.41;4924113;29;20031;-78
2022/10/19 02:42:01;;;;;;;7.00;1.70;;;10.30;99.90;;;8.82;100.00;101945.78;4924915;29;20106;-76
2022/10/19 02:45:05;;;;;;;6.35;1.80;;;10.30;99.90;;;8.84;100.00;101935.56;4921056;29;20031;-76
2022/10/19 02:47:43;;;;;;;11.00;2.00;;;10.30;99.90;;;8.93;100.00;101952.72;4925742;29;20515;-77
2022/10/19 02:50:10;;;;;;;5.78;2.25;;;10.40;99.90;;;8.92;100.00;101948.31;4924301;28;20556;-76
2022/10/19 02:52:38;;;;;;;7.13;2.10;;;10.40;99.90;;;8.96;100.00;101957.81;4923924;29;20086;-76
2022/10/19 02:55:06;;;;;;;6.03;1.75;;;10.40;99.90;;;8.99;100.00;101948.47;4922607;29;20559;-77
2022/10/19 02:57:32;;;;;;;10.80;2.50;;;10.40;99.90;;;8.96;100.00;101955.09;4924284;29;20032;-76
2022/10/19 02:59:58;;;;;;;8.00;1.80;;;10.40;99.90;;;8.86;100.00;101940.84;4925724;29;20031;-77
2022/10/19 03:02:25;;;;;;;8.93;1.90;;;10.40;99.90;;;8.97;100.00;101961.41;4928310;29;20534;-77
2022/10/19 03:04:51;;;;;;;9.73;2.13;;;10.40;99.90;;;8.97;100.00;101961.41;4926032;29;20122;-77
2022/10/19 03:07:19;;;;;;;5.82;2.00;;;10.40;99.90;;;8.92;100.00;101960.06;4922634;29;20738;-78
2022/10/19 03:09:45;;;;;;;8.40;2.08;;;10.40;99.90;;;8.88;100.00;101942.34;4924477;29;20422;-77
2022/10/19 03:12:13;;;;;;;5.78;1.80;;;10.30;99.90;;;8.83;100.00;101939.31;4924438;28;20138;-77
2022/10/19 03:14:39;;;;;;;12.50;2.13;;;10.30;99.90;;;8.94;100.00;101965.31;4924658;29;20035;-78
2022/10/19 03:17:05;;;;;;;5.85;1.95;;;10.40;99.90;;;8.78;100.00;101931.69;4927416;29;20054;-77
2022/10/19 03:19:32;;;;;;;7.70;1.85;;;10.40;99.90;;;8.96;100.00;101965.16;4927818;29;20051;-78
2022/10/19 03:21:58;;;;;;;9.15;1.80;;;10.40;99.90;;;9.01;100.00;101962.75;4923428;29;20063;-77
2022/10/19 03:24:24;;;;;;;5.90;2.10;;;10.40;99.90;;;8.95;100.00;101953.41;4921864;28;20498;-77
2022/10/19 03:26:49;;;;;;;5.85;1.90;;;10.40;99.90;;;8.98;100.00;101953.03;4921491;29;20032;-78
2022/10/19 03:29:15;;;;;;;8.65;2.17;;;10.40;99.90;;;8.94;100.00;101954.41;4924367;29;20039;-78
2022/10/19 03:31:41;;;;;;;6.80;2.20;;;10.40;99.90;;;8.88;100.00;101945.06;4921642;28;20032;-77
2022/10/19 03:34:07;;;;;;;6.88;2.00;;;10.40;99.90;;;8.88;100.00;101949.69;4923619;28;20059;-79
2022/10/19 03:36:38;;;;;;;14.63;2.33;;;10.40;99.90;;;8.99;100.00;101965.63;4927770;29;20051;-78
2022/10/19 03:39:10;;;;;;;7.93;1.95;;;10.40;99.90;;;8.84;100.00;101937.44;4925541;28;20119;-77
2022/10/19 03:41:37;;;;;;;10.35;2.38;;;10.40;99.90;;;8.93;100.00;101950.00;4924315;29;20019;-77
2022/10/19 03:44:06;;;;;;;8.27;1.87;;;10.40;99.90;;;8.97;100.00;101962.22;4921427;29;20024;-77
2022/10/19 03:46:33;;;;;;;5.30;1.75;;;10.40;99.90;;;8.98;100.00;101968.53;4921588;28;20305;-78
2022/10/19 03:48:58;;;;;;;5.45;1.80;;;10.40;99.90;;;8.92;100.00;101951.88;4923925;29;20027;-77
2022/10/19 03:51:28;;;;;;;4.97;2.15;;;10.40;99.90;;;8.94;100.00;101948.97;4927472;28;20130;-77
2022/10/19 03:54:06;;;;;;;7.53;2.40;;;10.40;99.90;;;8.85;100.00;101941.88;4921628;29;20039;-77
2022/10/19 03:56:34;;;;;;;5.38;1.85;;;10.40;99.90;;;8.80;100.00;101938.81;4918180;28;20491;-77
2022/10/19 03:59:03;;;;;;;;;;;10.40;99.90;;;8.95;100.00;101983.34;4923847;29;20114;-78
2022/10/19 04:01:36;;;;;;;8.60;2.20;;;10.40;99.90;;;8.93;100.00;101977.22;4924314;28;19918;-78
2022/10/19 04:04:11;;;;;;;9.43;2.05;;;10.40;99.90;;;8.91;100.00;101969.25;4921743;29;20093;-78
2022/10/19 04:06:40;;;;;;;8.35;2.40;;;10.40;99.90;;;9.04;100.00;101973.28;4927204;29;20039;-77
2022/10/19 04:09:10;;;;;;;7.65;2.25;;;10.40;99.90;;;9.04;100.00;101974.16;4928874;29;20055;-77
2022/10/19 04:11:37;;;;;;;7.00;2.10;;;10.50;99.90;;;9.05;100.00;101964.09;4921841;29;20460;-77
2022/10/19 04:14:03;;;;;;;12.18;2.30;;;10.50;99.90;;;9.08;100.00;101969.19;4918681;29;20103;-78
2022/10/19 04:16:31;;;;;;;4.65;1.98;;;10.50;99.90;;;9.05;100.00;101962.22;4920958;29;20032;-78
2022/10/19 04:18:57;;;;;;;9.60;2.05;;;10.50;99.90;;;9.19;100.00;101981.56;4927566;29;20106;-78
2022/10/19 04:21:36;;;;;;;8.50;2.38;;;10.60;99.90;;;9.18;100.00;101983.47;4927021;29;20035;-77
2022/10/19 04:24:08;;;;;;;;;;;10.60;99.90;;;9.26;100.00;101974.41;4920368;29;20495;-80
2022/10/19 04:26:46;;;;;;;11.73;2.33;;;10.60;99.90;;;9.29;100.00;101974.06;4918350;29;20290;-79
2022/10/19 04:29:12;;;;;;;11.30;2.10;;;10.70;99.90;;;9.26;100.00;101979.84;4923962;29;20511;-79
2022/10/19 04:31:39;;;;;;;6.90;2.22;;;10.60;99.90;;;9.14;100.00;101959.47;4927192;29;20123;-79
2022/10/19 04:34:05;;;;;;;8.55;2.33;;;10.60;99.90;;;9.23;100.00;101968.47;4925875;28;20437;-76
2022/10/19 04:36:32;;;;;;;6.97;1.73;;;10.60;99.90;;;9.23;100.00;101966.56;4926856;28;20062;-78
2022/10/19 04:38:58;;;;;;;7.55;2.50;;;10.70;99.90;;;9.29;100.00;101973.22;4922271;29;20046;-78
2022/10/19 04:41:24;;;;;;;12.45;2.58;;;10.70;99.90;;;9.20;100.00;101964.22;4923400;28;20046;-78
2022/10/19 04:44:00;;;;;;;12.45;1.90;;;10.70;99.90;;;9.28;100.00;101983.25;4925516;28;20034;-78
2022/10/19 04:46:27;;;;;;;5.32;2.00;;;10.70;99.90;;;9.16;100.00;101971.91;4925351;29;20023;-78
2022/10/19 04:48:54;;;;;;;12.67;2.23;;;10.70;99.90;;;9.24;100.00;101979.16;4927144;29;20553;-78
2022/10/19 04:51:22;;;;;;;8.93;2.40;;;10.70;99.90;;;9.30;100.00;101980.34;4922680;29;20070;-79
2022/10/19 04:53:48;;;;;;;10.05;1.80;;;10.70;99.90;;;9.29;100.00;101981.38;4925877;29;20059;-80
2022/10/19 04:56:20;;;;;;;8.02;1.90;;;10.70;99.90;;;9.49;100.00;101993.56;4921683;29;20039;-79
2022/10/19 04:58:47;;;;;;;8.45;1.70;;;10.80;99.90;;;9.59;100.00;101990.63;4903841;29;20028;-79
2022/10/19 05:01:19;;;;;;;6.22;1.60;;;10.90;99.90;;;9.60;100.00;101994.19;4927727;28;20031;-79
2022/10/19 05:03:46;;;;;;;6.88;1.58;;;11.00;99.90;;;9.59;100.00;101982.47;4925590;29;20459;-78
2022/10/19 05:06:14;;;;;;;6.55;1.70;;;11.00;99.90;;;9.60;100.00;101988.75;4930080;28;20150;-79
2022/10/19 05:08:40;;;;;;;10.00;2.10;;;11.00;99.90;;;9.65;100.00;102005.41;4924698;29;20035;-78
2022/10/19 05:11:16;;;;;;;10.80;1.80;;;11.00;99.90;;;9.59;100.00;101981.59;4919465;29;20043;-81
2022/10/19 05:13:43;;;;;;;11.02;1.67;;;11.00;99.90;;;9.56;100.00;101993.72;4925157;29;20122;-77
2022/10/19 05:16:16;;;;;;;7.28;1.70;;;11.00;99.90;;;9.62;100.00;101992.13;4926197;29;20415;-77
2022/10/19 05:18:46;;;;;;;8.85;1.67;;;11.00;99.90;;;9.66;100.00;101998.91;4922950;29;20495;-78
2022/10/19 05:21:13;;;;;;;8.15;1.60;;;11.00;99.90;;;9.62;100.00;101992.13;4920245;29;20020;-78
2022/10/19 05:23:40;;;;;;;5.45;1.30;;;11.10;99.90;;;9.55;100.00;101983.84;4923168;29;20035;-78
2022/10/19 05:26:16;;;;;;;5.93;1.63;;;11.00;99.90;;;9.55;100.00;101992.00;4926929;28;20046;-79
2022/10/19 05:28:47;;;;;;;11.32;1.55;;;10.90;99.90;;;9.58;100.00;101980.75;4924422;29;20031;-77
2022/10/19 05:31:19;;;;;;;5.68;1.35;;;11.00;99.90;;;9.57;100.00;101989.09;4927443;29;20040;-79
2022/10/19 05:33:45;;;;;;;8.27;1.42;;;11.00;99.90;;;9.50;100.00;101986.22;4923058;29;20091;-77
2022/10/19 05:36:21;;;;;;;9.80;1.52;;;10.90;99.90;;;9.52;100.00;101975.16;4926978;29;20035;-78
2022/10/19 05:38:49;;;;;;;8.13;1.75;;;10.90;99.90;;;9.33;100.00;101961.78;4919131;28;20035;-79
2022/10/19 05:41:16;;;;;;;8.07;1.63;;;10.90;99.90;;;9.41;100.00;101968.22;4927627;29;20087;-81
2022/10/19 05:43:42;;;;;;;6.63;1.40;;;10.90;99.90;;;9.58;100.00;101974.44;4932440;29;20059;-83
2022/10/19 05:46:16;;;;;;;6.53;1.70;;;11.00;99.90;;;9.69;100.00;101992.28;4921032;29;20036;-80
2022/10/19 05:48:43;;;;;;;12.85;1.60;;;11.00;99.90;;;9.72;100.00;101983.75;4930080;29;20027;-78
2022/10/19 05:51:12;;;;;;;6.03;1.70;;;11.10;99.90;;;9.71;100.00;101984.78;4931106;28;20118;-79
2022/10/19 05:53:39;;;;;;;8.00;1.80;;;11.10;99.90;;;9.64;100.00;101979.19;4932415;28;20043;-79
2022/10/19 05:56:08;;;;;;;7.25;1.40;;;11.10;99.90;;;9.67;100.00;101988.88;4923247;29;20091;-78
2022/10/19 05:58:34;;;;;;;6.53;1.45;;;11.10;99.90;;;9.63;100.00;101981.06;4921140;29;20051;-79
2022/10/19 06:01:01;;;;;;;7.40;1.42;;;11.10;99.90;;;9.67;100.00;101997.88;4920540;29;20087;-78
2022/10/19 06:03:29;;;;;;;10.05;1.90;;;11.10;99.90;;;9.72;100.00;101991.91;4925471;28;20040;-77
2022/10/19 06:05:56;;;;;;;10.68;1.70;;;11.10;99.90;;;9.63;100.00;101982.94;4924350;29;20570;-78
2022/10/19 06:08:23;;;;;;;9.93;1.90;;;11.10;99.90;;;9.69;100.00;101992.28;4926453;28;20071;-79
2022/10/19 06:10:50;;;;;;;7.90;1.60;;;11.10;99.90;;;9.67;100.00;101999.78;4923185;29;20396;-79
2022/10/19 06:13:18;;;;;;;6.97;1.80;;;11.00;99.90;;;9.70;100.00;102002.16;4927240;28;20086;-77
2022/10/19 06:15:48;;;;;;;;;;;11.10;99.90;;;9.67;100.00;101997.06;4928644;29;20046;-77
2022/10/19 06:18:14;;;;;;;5.15;1.70;;;11.00;99.90;;;9.66;100.00;101993.47;4921293;29;19947;-78
2022/10/19 06:20:41;;;;;;;5.57;1.70;;;11.10;99.90;;;9.70;100.00;102000.28;4925380;29;20043;-76
2022/10/19 06:23:07;;;;;;;9.20;1.38;;;11.00;99.90;;;9.70;100.00;102005.75;4923011;28;20046;-76
2022/10/19 06:25:35;;;;;;;7.38;1.83;;;11.10;99.90;;;9.71;100.00;102006.56;4919984;29;20071;-76
2022/10/19 06:28:02;;;;;;;9.10;1.90;;;11.10;99.90;;;9.73;100.00;102012.69;4923575;29;20020;-81
2022/10/19 06:30:28;;;;;;;9.18;2.03;;;11.10;99.90;;;9.67;100.00;102005.22;4928156;29;20146;-77
2022/10/19 06:32:53;;;;;;;3.88;1.17;;;11.10;99.90;;;9.69;100.00;102009.50;4925826;29;20055;-78
2022/10/19 06:35:19;;;;;;;6.13;1.40;;;11.10;99.90;;;9.72;100.00;102008.28;4929493;29;20372;-79
2022/10/19 06:37:45;;;;;;;5.95;1.27;;;11.10;99.90;;;9.69;100.00;102006.75;4929348;28;20032;-80
2022/10/19 06:40:11;;;;;;;6.07;1.40;;;11.10;99.90;;;9.63;100.00;102000.13;4928886;29;20040;-78
2022/10/19 06:42:40;;;;;;;4.40;1.92;;;11.10;99.90;;;9.71;100.00;102006.56;4928698;29;20123;-78
2022/10/19 06:45:08;;;;;;;7.28;1.60;;;11.10;99.90;;;9.76;100.00;102015.91;4922189;28;20024;-76
2022/10/19 06:47:35;;;;;;;5.72;1.20;;;11.20;99.90;;;9.73;100.00;102021.72;4924818;29;20032;-80
2022/10/19 06:50:04;;;;;;;7.93;1.80;;;11.20;99.90;;;9.76;100.00;102018.66;4920873;28;20086;-79
2022/10/19 06:52:29;;;;;;;5.82;1.63;;;11.20;99.90;;;9.71;100.00;102021.06;4922903;29;20070;-80
2022/10/19 06:54:55;;;;;;;6.53;1.63;;;11.20;99.90;;;9.81;100.00;102025.44;4919854;28;20044;-80
2022/10/19 06:57:21;;;;;;;10.45;1.50;;;11.20;99.90;;;9.89;100.00;102028.09;4924664;29;20106;-76
2022/10/19 06:59:47;;;;;;;11.85;1.90;;;11.30;99.90;;;9.98;100.00;102034.38;4926525;29;20570;-75
2022/10/19 07:02:14;;;;;;;7.45;1.35;;;11.40;99.90;;;9.93;100.00;102013.94;4928197;29;20039;-76
2022/10/19 07:04:39;;;;;;;4.03;1.47;;;11.40;99.90;;;9.97;100.00;102027.22;4924601;29;20110;-75
2022/10/19 07:07:06;;;;;;;6.45;1.60;;;11.40;99.90;;;10.08;100.00;102032.28;4923492;29;20032;-77
2022/10/19 07:09:32;;;;;;;6.68;1.45;;;11.50;99.90;;;9.92;100.00;102014.13;4919093;29;20027;-77
2022/10/19 07:11:58;;;;;;;4.90;1.50;;;11.50;99.90;;;10.05;100.00;102030.75;4926020;28;20116;-77
2022/10/19 07:14:27;;;;;;;5.07;1.17;;;11.40;99.90;;;10.05;100.00;102040.78;4927352;29;20070;-75
2022/10/19 07:16:54;;;;;;;8.75;1.30;;;11.50;99.90;;;10.04;100.00;102042.69;4926734;29;20060;-75
2022/10/19 07:19:24;;;;;;;9.88;1.42;;;11.50;99.90;;;10.06;100.00;102039.75;4923921;28;20040;-76
2022/10/19 07:21:50;;;;;;;7.95;1.50;;;11.50;99.90;;;10.11;100.00;102044.69;4919900;29;20571;-77
2022/10/19 07:24:16;;;;;;;9.32;1.67;;;11.50;99.90;;;10.16;100.00;102043.13;4921826;29;20074;-77
2022/10/19 07:26:42;;;;;;;9.77;1.23;;;11.60;99.90;;;10.33;100.00;102048.47;4920724;29;20055;-74
2022/10/19 07:29:09;;;;;;;8.07;1.50;;;11.70;99.90;;;10.24;100.00;102033.19;4920394;29;20430;-76
2022/10/19 07:31:35;;;;;;;8.23;1.67;;;11.80;99.90;;;10.36;100.00;102045.41;4923328;29;20058;-77
2022/10/19 07:34:03;;;;;;;3.35;1.10;;;11.80;99.90;;;10.34;98.60;102041.97;4922601;29;20386;-77
2022/10/19 07:36:33;;;;;;;4.47;0.82;;;11.80;99.90;;;10.43;86.45;102053.72;4923379;29;20578;-78
2022/10/19 07:39:04;;;;;;;7.38;1.00;;;11.80;99.90;;;10.61;86.90;102057.00;4925136;29;20490;-78
2022/10/19 07:41:30;;;;;;;7.60;1.40;;;12.00;99.90;;;10.71;89.42;102047.69;4926178;29;20039;-77
2022/10/19 07:43:56;;;;;;;6.05;1.30;;;12.10;99.90;;;10.82;87.65;102047.28;4924310;29;20039;-76
2022/10/19 07:46:27;;;;;;;6.65;1.20;;;12.30;99.90;;;11.00;85.13;102062.47;4917463;29;20082;-78
2022/10/19 07:48:54;;;;;;;6.18;1.02;;;12.40;99.90;;;10.98;85.36;102057.19;4922930;29;20070;-76
2022/10/19 07:51:21;;;;;;;6.43;1.15;;;12.40;99.90;;;11.04;86.16;102070.09;4931387;29;20451;-78
2022/10/19 07:53:47;;;;;;;7.05;1.10;;;12.40;99.90;;;10.93;85.50;102065.94;4924777;28;20060;-79
2022/10/19 07:56:23;;;;;;;9.23;1.20;;;12.30;99.90;;;10.91;86.59;102073.47;4924875;29;20514;-78
2022/10/19 07:58:52;;;;;;;4.47;1.08;;;12.30;99.90;;;10.93;86.64;102070.56;4920933;29;20348;-76
2022/10/19 08:01:23;;;;;;;4.88;0.82;;;12.30;99.90;;;10.91;84.12;102075.38;4922796;29;20119;-78
2022/10/19 08:03:52;;;;;;;8.30;1.00;;;12.30;99.90;;;10.78;79.56;102078.72;4918850;29;20591;-78
2022/10/19 08:06:18;;;;;;;7.03;1.45;;;12.20;99.90;;;10.77;81.88;102072.38;4921515;29;20152;-78
2022/10/19 08:08:46;;;;;;;4.93;1.10;;;12.30;99.90;;;10.85;84.46;102085.13;4922383;29;20028;-80
2022/10/19 08:11:26;;;;;;;5.15;1.02;;;12.20;99.90;;;10.74;84.15;102086.41;4917820;29;20051;-77
2022/10/19 08:13:53;;;;;;;6.05;1.05;;;12.20;99.90;;;10.74;83.99;102075.50;4923983;29;20095;-79
2022/10/19 08:16:31;;;;;;;5.45;1.00;;;12.20;99.90;;;10.70;85.29;102076.03;4926913;29;20032;-78
2022/10/19 08:19:09;;;;;;;5.30;1.20;;;12.20;99.90;;;10.84;83.52;102082.56;4924312;28;20048;-78
2022/10/19 08:21:38;;;;;;;6.53;1.52;;;12.30;99.90;;;11.00;84.50;102092.50;4925089;29;20414;-78
2022/10/19 08:24:05;;;;;;;4.07;0.90;;;12.30;99.90;;;10.88;81.58;102081.19;4925035;29;20046;-78
2022/10/19 08:26:36;;;;;;;5.90;1.10;;;12.30;99.90;;;11.01;82.24;102088.75;4926003;29;20038;-75
2022/10/19 08:29:04;;;;;;;5.30;0.88;;;12.40;99.90;;;11.04;76.17;102094.69;4921037;29;20617;-76
2022/10/19 08:31:31;;;;;;;3.92;0.85;;;12.40;99.90;;;11.16;76.68;102088.78;4920001;29;20447;-76
2022/10/19 08:33:57;;;;;;;3.45;0.63;;;12.50;99.90;;;11.35;80.93;102087.41;4923683;29;20031;-76
2022/10/19 08:36:23;;;;;;;3.38;1.00;;;12.70;99.90;;;11.38;74.32;102078.81;4926789;29;20697;-77
2022/10/19 08:38:50;;;;;;;5.05;0.93;;;12.70;99.90;;;11.61;75.03;102084.19;4927371;29;20027;-77
2022/10/19 08:41:45;;;;;;;6.05;0.82;;;12.90;99.90;;;11.62;71.89;102068.66;4936193;29;20467;-78
2022/10/19 08:44:59;;;;;;;6.95;0.90;;;13.00;99.90;;;11.70;70.90;102073.19;4925381;29;20399;-77
2022/10/19 08:47:54;;;;;;;3.60;0.85;;;13.00;99.90;;;11.92;76.07;102069.47;4913345;29;20071;-78
2022/10/19 08:50:32;;;;;;;3.70;0.73;;;13.20;99.90;;;11.96;73.45;102071.84;4919900;29;20036;-75
2022/10/19 08:53:21;;;;;;;6.22;1.20;;;13.30;99.90;;;12.05;71.82;102057.03;4918736;29;20048;-75
2022/10/19 08:56:28;;;;;;;5.40;0.82;;;13.40;99.90;;;12.11;69.16;102059.00;4922675;29;20028;-75
2022/10/19 08:59:22;;;;;;;7.95;1.00;;;13.50;99.90;;;12.03;69.64;102064.59;4925496;29;20517;-76
2022/10/19 09:02:09;;;;;;;1.83;0.52;;;13.50;99.90;;;12.17;69.56;102050.00;4923822;29;20039;-78
2022/10/19 09:04:41;;;;;;;3.78;0.75;;;13.60;99.90;;;12.39;68.60;102069.19;4922737;29;20076;-76
2022/10/19 09:07:26;;;;;;;3.67;0.85;;;13.70;99.90;;;12.70;68.25;102067.19;4924028;29;20034;-77
2022/10/19 09:10:10;;;;;;;3.58;0.70;;;14.00;99.90;;;12.29;66.76;102049.50;4915870;29;20047;-77
2022/10/19 09:12:59;;;;;;;3.70;0.80;;;13.90;99.90;;;12.57;65.70;102048.75;4922519;29;20476;-76
2022/10/19 09:15:40;;;;;;;3.13;0.80;;;14.00;99.90;;;12.82;67.09;102064.75;4916600;29;20471;-75
2022/10/19 09:18:32;;;;;;;4.90;1.77;;;14.10;99.90;;;12.82;67.17;102073.81;4919847;29;20040;-77
2022/10/19 09:21:21;;;;;;;3.65;0.60;;;14.20;99.90;;;13.00;64.60;102067.88;4921536;29;20492;-76
2022/10/19 09:23:59;;;;;;;3.53;0.60;;;14.30;99.90;;;12.92;64.79;102079.81;4920896;29;20418;-76
2022/10/19 09:26:32;;;;;;;6.07;0.90;;;14.30;99.90;;;13.13;69.84;102078.09;4917425;29;20478;-76
2022/10/19 09:29:19;;;;;;;5.15;1.00;;;14.40;99.90;;;13.32;69.29;102076.53;4922761;29;20050;-76
2022/10/19 09:31:45;;;;;;;3.67;0.70;;;14.50;99.90;;;13.44;68.06;102067.78;4920873;29;20042;-76
2022/10/19 09:34:24;;;;;;;4.13;0.85;;;14.70;99.90;;;13.62;64.95;102068.09;4924387;29;20494;-77
2022/10/19 09:36:56;;;;;;;3.38;0.80;;;14.90;99.90;;;13.78;64.15;102066.03;4919137;29;20135;-76
2022/10/19 09:39:28;;;;;;;4.38;0.80;;;15.00;99.90;;;13.77;65.30;102084.41;4914879;29;20051;-75
2022/10/19 09:42:07;;;;;;;7.45;1.20;;;15.00;99.90;;;13.64;67.31;102054.16;4916839;29;20031;-74
2022/10/19 09:44:33;;;;;;;3.83;0.82;;;15.00;99.90;;;13.87;63.21;102073.06;4920331;29;20471;-74
2022/10/19 09:47:36;;;;;;;7.57;1.00;;;15.10;99.90;;;13.93;63.19;102075.00;4923977;29;20064;-76
2022/10/19 09:50:20;;;;;;;4.50;1.10;;;15.10;99.90;;;13.89;71.01;102076.47;4928073;29;20944;-76
2022/10/19 09:53:04;;;;;;;3.60;1.20;;;15.10;99.90;;;13.86;65.60;102081.50;4924225;29;20119;-76
2022/10/19 09:55:45;;;;;;;5.68;0.80;;;15.10;99.90;;;13.81;64.88;102084.88;4922077;29;20036;-76
2022/10/19 09:58:14;;;;;;;3.45;0.80;;;15.00;99.90;;;13.73;70.58;102085.88;4904273;29;20016;-76
2022/10/19 10:00:49;;;;;;;5.90;0.90;;;15.00;99.90;;;13.71;62.69;102076.16;4926945;29;20070;-77
2022/10/19 10:03:39;;;;;;;2.80;0.70;;;15.00;99.90;;;13.91;62.21;102077.09;4925461;29;20074;-77
2022/10/19 10:06:13;;;;;;;2.85;0.77;;;15.10;99.90;;;13.84;65.41;102058.91;4922436;29;20391;-77
2022/10/19 10:08:56;;;;;;;2.88;0.90;;;15.20;99.90;;;13.87;63.25;102078.56;4927796;29;20047;-77
2022/10/19 10:11:36;;;;;;;3.88;0.80;;;15.10;99.90;;;13.98;63.66;102059.81;4924699;29;20506;-75
2022/10/19 10:14:19;;;;;;;5.47;1.08;;;15.30;99.90;;;14.34;60.13;102081.47;4930853;29;20135;-75
2022/10/19 10:16:46;;;;;;;5.05;1.42;;;15.40;99.90;;;14.42;62.43;102082.31;4931033;29;20040;-75
2022/10/19 10:19:15;;;;;;;4.70;0.90;;;15.60;99.90;;;14.38;66.55;102082.72;4924872;29;20059;-76
2022/10/19 10:21:44;;;;;;;3.65;0.85;;;15.70;99.90;;;14.61;64.67;102083.44;4926880;29;20408;-76
2022/10/19 10:24:10;;;;;;;3.58;1.00;;;15.80;99.90;;;14.64;60.72;102088.50;4933484;29;20064;-76
2022/10/19 10:26:50;;;;;;;3.80;1.63;;;15.90;99.90;;;14.74;59.62;102094.44;4929460;29;20068;-76
2022/10/19 10:29:34;;;;;;;3.88;1.17;;;16.00;99.60;;;14.91;62.37;102097.63;4928189;29;20040;-76
2022/10/19 10:32:19;;;;;;;3.08;1.10;;;16.10;99.90;;;14.51;63.08;102070.94;4924969;29;20177;-78